Carolina Beach, North Carolina
Current Conditions -  °F | °C
As of 11:15 PM on Tuesday 25 Nov 2014 (Local Time) from KSUT Reporting Station
Moderate Rain Moderate Rain  
Wind Chill: 17°   Ceiling: 400
Heat Index: 17°   Visibility: 5mi
Dew Point: 16°   Wind: 6mph
Humidity: 97%   Direction: 80°E
Pressure: 29.98"   Gusts: NA
Location:  34.04°N, 77.89°W
Report Text: KSUT 260415Z AUTO 08005KT 5SM RA OVC004 17/16 A2998 RMK AO2 P0003 T01660161
Loading
Personal Weather Stations






























Interactive Weather Map New forecast layout! Learn more

10-Day Weather Forecast

Advertisements
Track Severe Weather on mobile